Time;durP1;ratioP1;P1;durP2;ratioP2;P2;SDS_P1;SDS_P2;PMS_P1;PMS_P2;Temp;Humidity;BMP_temperature;BMP_pressure;BME280_temperature;BME280_humidity;BME280_pressure;Samples;Min_cycle;Max_cycle;Signal;HPM_P1;HPM_P2
2022/05/01 00:01:35;;;;;;;7.93;4.75;;;;;;;4.72;98.13;99012.22;5058322;28;20071;-66
2022/05/01 00:04:01;;;;;;;8.18;5.47;;;;;;;4.66;97.82;99004.34;5053820;28;20025;-66
2022/05/01 00:06:26;;;;;;;8.30;4.38;;;;;;;4.60;97.04;99006.88;5060882;28;20021;-66
2022/05/01 00:08:52;;;;;;;10.55;6.38;;;;;;;4.57;96.65;99006.84;5051359;28;20095;-66
2022/05/01 00:11:17;;;;;;;12.75;5.07;;;;;;;4.43;97.15;99004.97;5048642;28;20093;-66
2022/05/01 00:13:45;;;;;;;10.65;5.82;;;;;;;4.45;96.88;99003.28;5058589;28;20021;-66
2022/05/01 00:16:11;;;;;;;8.98;5.05;;;;;;;4.43;97.19;98999.78;5053822;28;20032;-66
2022/05/01 00:18:37;;;;;;;10.80;5.78;;;;;;;4.44;97.22;99003.25;5047272;28;20097;-66
2022/05/01 00:21:03;;;;;;;11.90;5.78;;;;;;;4.46;96.75;98993.72;5048913;28;20075;-66
2022/05/01 00:23:28;;;;;;;7.90;5.03;;;;;;;4.57;97.24;98996.44;5059881;28;20343;-66
2022/05/01 00:25:54;;;;;;;11.07;5.85;;;;;;;4.52;97.55;98998.13;5054092;28;20029;-66
2022/05/01 00:28:20;;;;;;;10.93;6.13;;;;;;;4.59;97.56;98993.00;5056741;28;20039;-66
2022/05/01 00:30:45;;;;;;;12.95;5.65;;;;;;;4.62;96.47;99003.44;5059101;28;20051;-66
2022/05/01 00:38:39;;;;;;;9.55;5.88;;;;;;;4.39;96.26;98998.00;5054296;28;20067;-66
2022/05/01 00:41:07;;;;;;;16.58;5.65;;;;;;;4.34;95.80;98999.66;5050461;28;20025;-66
2022/05/01 00:43:33;;;;;;;8.70;5.00;;;;;;;4.33;95.39;98997.94;5057352;28;20031;-66
2022/05/01 00:45:59;;;;;;;12.02;6.15;;;;;;;4.34;95.20;98994.47;5050306;28;20032;-66
2022/05/01 00:48:24;;;;;;;11.93;6.45;;;;;;;4.08;94.61;98995.91;5055283;28;20336;-66
2022/05/01 00:50:52;;;;;;;8.50;4.95;;;;;;;4.16;96.25;98996.88;5058566;28;20032;-66
2022/05/01 00:53:18;;;;;;;13.32;5.68;;;;;;;4.13;96.82;98998.56;5056514;28;20247;-66
2022/05/01 00:55:44;;;;;;;11.52;4.97;;;;;;;4.13;96.86;99003.78;5053505;28;20379;-66
2022/05/01 00:58:09;;;;;;;7.65;5.15;;;;;;;4.08;97.87;98995.91;5053556;28;20083;-66
2022/05/01 01:00:35;;;;;;;8.68;5.20;;;;;;;4.20;98.04;99001.25;5049215;28;20029;-66
2022/05/01 01:03:01;;;;;;;11.60;6.28;;;;;;;4.46;97.35;99005.03;5052325;28;20036;-66
2022/05/01 01:05:27;;;;;;;11.15;6.57;;;;;;;4.53;97.14;99005.09;5055142;28;20056;-66
2022/05/01 01:07:55;;;;;;;10.07;5.88;;;;;;;4.64;97.70;98999.13;5048536;28;20376;-66
2022/05/01 01:10:21;;;;;;;12.75;6.75;;;;;;;4.69;97.53;98999.16;5054206;28;20032;-66
2022/05/01 01:12:56;;;;;;;10.20;5.38;;;;;;;4.90;97.79;98999.38;5052990;28;20283;-66
2022/05/01 01:15:24;;;;;;;7.70;5.13;;;;;;;5.07;96.95;98997.75;5045042;28;20071;-66
2022/05/01 01:17:54;;;;;;;10.50;5.63;;;;;;;5.18;96.81;99003.94;5054102;28;20029;-66
2022/05/01 01:20:27;;;;;;;10.30;5.68;;;;;;;5.32;97.29;98997.94;5056114;28;20024;-66
2022/05/01 01:22:55;;;;;;;9.43;4.90;;;;;;;5.44;97.01;99002.41;5061291;28;20031;-66
2022/05/01 01:25:24;;;;;;;11.82;5.78;;;;;;;5.48;96.92;98988.50;5050847;28;20228;-66
2022/05/01 01:27:51;;;;;;;10.18;5.35;;;;;;;5.47;96.92;98997.22;5052005;28;20024;-66
2022/05/01 01:33:03;;;;;;;10.60;5.85;;;;;;;5.39;97.62;98991.03;5055815;28;20035;-66
2022/05/01 01:35:29;;;;;;;10.65;5.43;;;;;;;5.48;97.44;98994.59;5053081;28;20025;-66
2022/05/01 01:37:56;;;;;;;8.45;5.43;;;;;;;5.49;97.83;98985.91;5053335;28;20351;-66
2022/05/01 01:40:34;;;;;;;11.68;6.43;;;;;;;5.48;97.70;98984.16;5061004;28;20048;-66
2022/05/01 01:43:01;;;;;;;9.27;5.32;;;;;;;5.39;97.42;98978.00;5052317;28;20092;-66
2022/05/01 01:45:28;;;;;;;8.82;5.40;;;;;;;5.39;97.67;98983.22;5049730;28;20051;-66
2022/05/01 01:48:08;;;;;;;11.07;5.43;;;;;;;5.37;98.28;98979.72;5059766;28;20211;-66
2022/05/01 01:50:34;;;;;;;11.85;6.10;;;;;;;5.30;98.41;98968.38;5052657;28;20049;-66
2022/05/01 01:52:59;;;;;;;9.77;5.55;;;;;;;5.23;97.66;98968.31;5047253;28;20025;-66
2022/05/01 01:55:25;;;;;;;10.75;5.60;;;;;;;5.26;97.97;98966.63;5046461;28;20096;-66
2022/05/01 01:57:50;;;;;;;11.98;5.97;;;;;;;5.30;98.10;98967.50;5055360;28;20020;-66
2022/05/01 02:00:16;;;;;;;10.20;5.00;;;;;;;5.24;98.12;98973.53;5052095;28;20043;-66
2022/05/01 02:02:41;;;;;;;12.30;5.72;;;;;;;5.21;97.90;98970.91;5053409;28;20224;-66
2022/05/01 02:05:07;;;;;;;10.35;6.10;;;;;;;5.17;98.02;98973.50;5049468;28;20053;-66
2022/05/01 02:07:36;;;;;;;13.00;6.25;;;;;;;5.06;97.78;98972.56;5048230;28;20021;-66
2022/05/01 02:10:03;;;;;;;11.85;6.13;;;;;;;5.04;98.29;98969.03;5048443;28;20020;-66
2022/05/01 02:12:29;;;;;;;11.85;5.63;;;;;;;4.97;97.74;98972.47;5050687;28;20031;-66
2022/05/01 02:14:55;;;;;;;8.63;5.63;;;;;;;4.89;97.56;98974.13;5048480;28;20048;-66
2022/05/01 02:17:21;;;;;;;10.23;6.43;;;;;;;4.81;97.72;98981.88;5047309;28;20029;-66
2022/05/01 02:19:46;;;;;;;11.48;6.28;;;;;;;4.78;98.40;98981.84;5055599;28;20021;-66
2022/05/01 02:22:14;;;;;;;11.88;7.20;;;;;;;4.76;97.83;98977.50;5057008;28;20025;-66
2022/05/01 02:24:39;;;;;;;13.13;6.32;;;;;;;4.70;96.93;98977.44;5053692;28;20043;-66
2022/05/01 02:27:05;;;;;;;8.98;5.75;;;;;;;4.59;98.34;98969.53;5048566;28;20320;-66
2022/05/01 02:29:30;;;;;;;11.50;5.85;;;;;;;4.44;98.94;98962.41;5046596;28;20028;-66
2022/05/01 02:31:56;;;;;;;14.75;6.15;;;;;;;4.35;99.45;98964.97;5054872;28;20100;-66
2022/05/01 02:34:23;;;;;;;11.88;6.68;;;;;;;4.28;99.82;98973.53;5055731;28;20052;-66
2022/05/01 02:36:51;;;;;;;8.98;5.72;;;;;;;4.37;99.93;98965.81;5053259;28;20074;-66
2022/05/01 02:39:17;;;;;;;9.48;5.75;;;;;;;4.43;98.78;98963.28;5058401;28;20336;-66
2022/05/01 02:41:43;;;;;;;18.83;7.00;;;;;;;4.28;99.58;98963.13;5047624;28;20048;-66
2022/05/01 02:44:09;;;;;;;10.43;5.80;;;;;;;4.23;99.43;98964.81;5061740;28;20076;-66
2022/05/01 02:46:35;;;;;;;10.80;6.53;;;;;;;4.19;99.57;98963.06;5056512;28;20037;-66
2022/05/01 02:49:00;;;;;;;8.90;5.95;;;;;;;4.17;99.26;98964.75;5060880;28;20021;-66
2022/05/01 02:51:26;;;;;;;11.88;6.18;;;;;;;4.09;98.54;98965.53;5052455;28;20040;-66
2022/05/01 02:53:51;;;;;;;10.35;5.50;;;;;;;4.18;99.52;98963.88;5058302;28;20005;-66
2022/05/01 02:56:17;;;;;;;8.57;5.25;;;;;;;4.23;98.86;98964.81;5057374;28;20040;-66
2022/05/01 02:58:42;;;;;;;8.68;5.68;;;;;;;4.28;98.93;98968.34;5051144;28;20029;-66
2022/05/01 03:01:08;;;;;;;13.77;5.85;;;;;;;4.43;99.16;98957.19;5064074;28;20029;-66
2022/05/01 03:03:33;;;;;;;8.50;5.30;;;;;;;4.55;99.45;98961.69;5065965;28;20044;-66
2022/05/01 03:05:59;;;;;;;13.60;5.68;;;;;;;4.57;98.76;98959.94;5064040;28;20028;-66
2022/05/01 03:08:25;;;;;;;14.10;6.30;;;;;;;4.50;98.51;98962.47;5054757;28;20036;-66
2022/05/01 03:10:51;;;;;;;13.05;6.50;;;;;;;4.35;98.28;98958.88;5052578;28;20021;-66
2022/05/01 03:13:17;;;;;;;8.30;5.47;;;;;;;4.49;98.33;98958.13;5054796;28;20021;-66
2022/05/01 03:15:43;;;;;;;13.70;6.55;;;;;;;4.55;98.34;98949.50;5053072;28;20251;-66
2022/05/01 03:23:37;;;;;;;10.80;6.18;;;;;;;4.45;97.70;98958.09;5054402;28;20035;-66
2022/05/01 03:26:03;;;;;;;13.18;5.47;;;;;;;4.42;97.98;98945.03;5060221;28;20029;-66
2022/05/01 03:28:28;;;;;;;11.95;5.97;;;;;;;4.53;98.71;98959.91;5059814;28;20024;-66
2022/05/01 03:30:54;;;;;;;10.30;5.95;;;;;;;4.63;98.69;98954.78;5058928;28;20029;-66
2022/05/01 03:33:22;;;;;;;10.38;5.82;;;;;;;4.73;98.42;98952.28;5057207;28;20024;-66
2022/05/01 03:35:48;;;;;;;17.77;6.72;;;;;;;4.84;98.44;98949.75;5056726;28;20198;-66
2022/05/01 03:38:15;;;;;;;14.48;6.03;;;;;;;4.90;98.42;98949.81;5055477;28;20331;-66
2022/05/01 03:40:41;;;;;;;7.78;5.00;;;;;;;4.86;97.16;98954.13;5057653;28;20021;-66
2022/05/01 03:43:06;;;;;;;10.90;5.05;;;;;;;4.75;96.77;98955.78;5058136;28;20029;-66
2022/05/01 03:45:32;;;;;;;9.35;6.10;;;;;;;4.60;97.10;98945.22;5058396;28;20024;-66
2022/05/01 03:47:58;;;;;;;11.77;5.90;;;;;;;4.63;97.19;98953.06;5057762;28;20036;-66
2022/05/01 03:50:23;;;;;;;14.68;6.43;;;;;;;4.63;98.18;98949.56;5059159;28;20029;-66
2022/05/01 03:52:48;;;;;;;9.68;5.75;;;;;;;4.73;98.16;98952.28;5055491;28;20028;-66
2022/05/01 03:55:14;;;;;;;9.95;6.00;;;;;;;4.71;98.28;98950.53;5062355;28;20051;-66
2022/05/01 03:57:40;;;;;;;11.52;6.32;;;;;;;4.62;98.16;98953.03;5057241;28;20032;-66
2022/05/01 04:00:10;;;;;;;13.93;6.40;;;;;;;4.70;99.07;98948.75;5058188;28;20055;-66
2022/05/01 04:02:45;;;;;;;10.75;6.20;;;;;;;4.69;99.46;98949.63;5050104;28;20040;-66
2022/05/01 04:05:12;;;;;;;11.68;6.15;;;;;;;4.75;99.10;98949.69;5054675;28;20030;-66
2022/05/01 04:07:38;;;;;;;11.63;7.15;;;;;;;4.77;99.65;98942.75;5059493;28;20029;-66
2022/05/01 04:10:04;;;;;;;12.93;6.65;;;;;;;4.80;100.00;98943.63;5062811;28;20047;-66
2022/05/01 04:12:35;;;;;;;14.48;7.05;;;;;;;4.98;99.46;98953.34;5058093;28;20026;-66
2022/05/01 04:15:03;;;;;;;12.73;6.45;;;;;;;4.95;99.75;98948.09;5053254;28;20300;-66
2022/05/01 04:17:29;;;;;;;12.30;5.95;;;;;;;5.07;99.96;98953.41;5056120;28;20091;-66
2022/05/01 04:19:55;;;;;;;12.70;6.22;;;;;;;5.16;100.00;98950.88;5056642;28;20021;-66
2022/05/01 04:22:21;;;;;;;14.80;7.40;;;;;;;5.23;99.38;98934.41;5056329;28;20028;-66
2022/05/01 04:24:46;;;;;;;10.73;6.85;;;;;;;5.19;99.60;98949.13;5059514;28;20096;-66
2022/05/01 04:27:12;;;;;;;9.27;6.15;;;;;;;5.27;99.68;98943.97;5053620;28;20026;-66
2022/05/01 04:29:38;;;;;;;10.45;5.93;;;;;;;5.38;99.79;98952.75;5052768;28;20100;-66
2022/05/01 04:32:05;;;;;;;12.00;6.57;;;;;;;5.52;99.16;98948.47;5050307;28;20018;-66
2022/05/01 04:34:32;;;;;;;13.30;6.53;;;;;;;5.53;98.39;98947.59;5061827;28;20323;-66
2022/05/01 04:36:58;;;;;;;10.30;5.63;;;;;;;5.55;98.80;98953.72;5051359;28;20021;-66
2022/05/01 04:39:24;;;;;;;16.45;6.72;;;;;;;5.65;98.61;98950.28;5051377;28;20093;-66
2022/05/01 04:41:49;;;;;;;13.90;7.68;;;;;;;5.66;99.02;98957.28;5052990;28;20028;-66
2022/05/01 04:44:15;;;;;;;15.80;6.20;;;;;;;5.57;99.62;98958.06;5058518;28;20216;-66
2022/05/01 04:46:40;;;;;;;12.35;6.30;;;;;;;5.54;99.45;98957.22;5059995;28;20037;-66
2022/05/01 04:49:06;;;;;;;9.43;5.22;;;;;;;5.71;99.80;98964.28;5048672;28;20312;-66
2022/05/01 04:51:31;;;;;;;11.00;6.05;;;;;;;5.90;99.27;98967.84;5063992;28;20016;-66
2022/05/01 04:53:57;;;;;;;10.43;5.47;;;;;;;6.00;98.01;98961.81;5054618;28;20021;-66
2022/05/01 04:59:07;;;;;;;12.02;7.25;;;;;;;5.97;97.95;98965.28;5054419;28;20212;-66
2022/05/01 05:01:36;;;;;;;16.00;7.03;;;;;;;5.98;97.91;98963.56;5054815;28;20237;-66
2022/05/01 05:04:03;;;;;;;14.98;7.97;;;;;;;5.93;98.48;98960.03;5059262;28;20038;-66
2022/05/01 05:06:29;;;;;;;15.43;6.57;;;;;;;5.96;98.78;98974.00;5061975;28;20028;-66
2022/05/01 05:11:43;;;;;;;10.65;6.72;;;;;;;6.08;98.61;98963.56;5057105;28;20044;-66
2022/05/01 05:14:09;;;;;;;14.23;8.02;;;;;;;6.21;98.29;98974.97;5054841;28;20024;-66
2022/05/01 05:16:34;;;;;;;13.57;7.47;;;;;;;6.32;98.11;98974.13;5055064;28;20308;-66
2022/05/01 05:19:00;;;;;;;13.30;6.05;;;;;;;6.40;97.39;98964.53;5056015;28;20051;-66
2022/05/01 05:21:26;;;;;;;12.55;7.35;;;;;;;6.41;97.70;98968.03;5055471;28;20080;-66
2022/05/01 05:23:51;;;;;;;19.30;7.80;;;;;;;6.45;97.76;98969.78;5058131;28;20312;-66
2022/05/01 05:26:17;;;;;;;14.43;7.07;;;;;;;6.46;98.04;98971.53;5055998;28;20032;-66
2022/05/01 05:28:42;;;;;;;12.75;7.25;;;;;;;6.53;98.00;98968.06;5057377;28;20059;-66
2022/05/01 05:31:07;;;;;;;17.65;7.82;;;;;;;6.63;97.81;98975.94;5054214;28;20135;-66
2022/05/01 05:33:33;;;;;;;13.10;6.82;;;;;;;6.71;97.33;98978.56;5053379;28;20017;-66
2022/05/01 05:35:58;;;;;;;10.77;6.40;;;;;;;6.75;97.58;98980.31;5056345;28;20025;-66
2022/05/01 05:38:24;;;;;;;11.43;6.07;;;;;;;6.80;97.44;98973.31;5055284;28;20272;-66
2022/05/01 05:40:49;;;;;;;11.90;6.95;;;;;;;6.85;96.70;98976.81;5054049;28;20040;-66
2022/05/01 05:43:14;;;;;;;12.43;6.90;;;;;;;6.82;97.07;98968.09;5049429;28;20084;-66
2022/05/01 05:45:40;;;;;;;13.60;7.45;;;;;;;6.95;96.97;98975.94;5057658;28;20425;-66
2022/05/01 05:48:06;;;;;;;11.73;7.20;;;;;;;7.00;97.19;98971.59;5052024;28;20092;-66
2022/05/01 05:50:31;;;;;;;14.80;6.70;;;;;;;7.16;96.91;98978.56;5051385;28;20021;-66
2022/05/01 05:52:57;;;;;;;15.18;7.15;;;;;;;7.22;97.53;98978.56;5048849;28;20088;-66
2022/05/01 05:55:22;;;;;;;13.88;8.10;;;;;;;7.30;98.09;98982.03;5058930;28;20029;-66
2022/05/01 05:57:48;;;;;;;15.80;7.38;;;;;;;7.33;98.28;98976.81;5052793;28;20031;-66
2022/05/01 06:00:14;;;;;;;12.90;7.95;;;;;;;7.42;98.72;98976.81;5056804;28;20025;-66
2022/05/01 06:02:39;;;;;;;16.08;9.02;;;;;;;7.52;98.47;98982.88;5059131;28;20336;-66
2022/05/01 06:05:06;;;;;;;12.80;7.55;;;;;;;7.55;97.88;98985.50;5058446;28;20078;-66
2022/05/01 06:07:32;;;;;;;16.35;7.53;;;;;;;7.62;97.19;98990.72;5048593;28;20026;-66
2022/05/01 06:09:57;;;;;;;14.32;8.00;;;;;;;7.65;97.27;98990.72;5052861;28;20028;-66
2022/05/01 06:12:23;;;;;;;11.82;7.63;;;;;;;7.65;97.03;98992.44;5051012;28;20055;-66
2022/05/01 06:14:48;;;;;;;15.82;8.35;;;;;;;7.69;96.74;98991.59;5053420;28;20013;-66
2022/05/01 06:17:14;;;;;;;14.32;7.90;;;;;;;7.74;97.48;99001.19;5050267;28;20040;-66
2022/05/01 06:19:39;;;;;;;16.05;8.23;;;;;;;7.77;97.19;99001.19;5057658;28;20028;-66
2022/05/01 06:22:05;;;;;;;13.40;6.80;;;;;;;7.85;96.79;98999.38;5054627;28;20186;-66
2022/05/01 06:24:30;;;;;;;13.90;7.82;;;;;;;7.87;97.52;98997.66;5055876;28;20185;-66
2022/05/01 06:26:57;;;;;;;14.27;8.00;;;;;;;7.97;98.52;98999.34;5056139;28;20028;-66
2022/05/01 06:29:22;;;;;;;15.73;8.15;;;;;;;8.00;98.48;98999.34;5059559;28;20074;-66
2022/05/01 06:31:48;;;;;;;13.75;8.07;;;;;;;8.12;97.86;99001.94;5063143;28;20025;-66
2022/05/01 06:34:15;;;;;;;13.75;7.75;;;;;;;8.22;97.90;99002.78;5064112;28;20224;-66
2022/05/01 06:36:41;;;;;;;16.48;9.23;;;;;;;8.24;97.87;99004.56;5055976;28;20027;-67
2022/05/01 06:39:09;;;;;;;18.67;8.95;;;;;;;8.26;97.16;99007.16;5056620;28;20024;-66
2022/05/01 06:41:35;;;;;;;15.30;8.25;;;;;;;8.24;98.14;99004.56;5057595;28;20040;-66
2022/05/01 06:44:00;;;;;;;17.40;8.43;;;;;;;8.28;97.58;99001.03;5062305;28;20016;-66
2022/05/01 06:46:25;;;;;;;18.08;9.73;;;;;;;8.32;96.95;99002.75;5055650;28;20059;-66
2022/05/01 06:48:51;;;;;;;17.30;9.95;;;;;;;8.30;96.76;99001.91;5058010;28;20115;-66
2022/05/01 06:51:16;;;;;;;19.25;9.38;;;;;;;8.37;96.51;98995.75;5058076;28;20028;-66
2022/05/01 06:53:42;;;;;;;16.73;9.52;;;;;;;8.45;95.25;99004.44;5056750;28;20021;-66
2022/05/01 06:56:07;;;;;;;15.63;8.02;;;;;;;8.52;94.82;99006.13;5059107;28;20048;-66
2022/05/01 06:58:34;;;;;;;17.60;9.73;;;;;;;8.50;94.39;99007.91;5049112;28;20021;-66
2022/05/01 07:01:00;;;;;;;20.92;9.35;;;;;;;8.47;94.18;99010.56;5050995;28;20088;-66
2022/05/01 07:03:26;;;;;;;20.33;9.25;;;;;;;8.52;94.33;99008.75;5071315;28;20337;-65
2022/05/01 07:05:51;;;;;;;20.05;9.60;;;;;;;8.66;95.27;99006.06;5067932;28;20047;-66
2022/05/01 07:08:16;;;;;;;17.40;8.80;;;;;;;8.77;95.57;98996.38;5062283;28;20025;-66
2022/05/01 07:10:42;;;;;;;19.23;10.95;;;;;;;8.84;94.83;99005.97;5056228;28;20074;-66
2022/05/01 07:13:10;;;;;;;17.20;9.88;;;;;;;8.97;94.22;99001.47;5060109;28;20335;-66
2022/05/01 07:15:36;;;;;;;18.75;9.68;;;;;;;8.98;93.20;99005.88;5058799;28;20093;-66
2022/05/01 07:18:01;;;;;;;16.35;9.90;;;;;;;9.01;92.61;99000.59;5061239;28;20031;-66
2022/05/01 07:20:26;;;;;;;15.48;9.43;;;;;;;9.00;91.93;99004.09;5056114;28;20021;-66
2022/05/01 07:22:52;;;;;;;17.27;9.25;;;;;;;8.97;93.12;99001.47;5055178;28;20021;-65
2022/05/01 07:25:17;;;;;;;14.77;9.07;;;;;;;9.10;93.05;98996.13;5055736;28;20021;-67
2022/05/01 07:27:43;;;;;;;20.30;9.50;;;;;;;9.17;92.01;98999.59;5052733;28;20045;-67
2022/05/01 07:30:08;;;;;;;16.33;9.85;;;;;;;9.13;91.92;98995.22;5047787;28;20025;-66
2022/05/01 07:32:34;;;;;;;22.60;11.32;;;;;;;9.13;92.43;98990.88;5051711;28;20225;-66
2022/05/01 07:34:59;;;;;;;17.38;9.48;;;;;;;9.33;92.08;98982.81;5046545;28;20021;-66
2022/05/01 07:37:26;;;;;;;18.83;9.75;;;;;;;9.37;91.42;98985.41;5062581;28;20217;-66
2022/05/01 07:39:54;;;;;;;21.83;10.20;;;;;;;9.49;90.83;98994.94;5052783;28;20392;-66
2022/05/01 07:42:20;;;;;;;16.27;10.32;;;;;;;9.53;90.60;98988.75;5046421;28;20033;-66
2022/05/01 07:44:46;;;;;;;25.63;10.95;;;;;;;9.62;90.22;98983.41;5050056;28;20036;-66
2022/05/01 07:47:11;;;;;;;20.60;10.25;;;;;;;9.80;90.30;98991.09;5065793;28;20020;-66
2022/05/01 07:49:37;;;;;;;27.20;10.85;;;;;;;9.99;88.53;98992.63;5056873;28;20383;-66
2022/05/01 07:52:02;;;;;;;18.52;10.05;;;;;;;10.11;89.28;98992.53;5057284;28;20070;-66
2022/05/01 07:54:28;;;;;;;23.98;10.30;;;;;;;10.26;88.25;98998.50;5065600;28;20036;-66
2022/05/01 07:56:53;;;;;;;20.95;10.32;;;;;;;10.33;87.16;98999.28;5060687;28;20032;-66
2022/05/01 07:59:18;;;;;;;17.08;9.80;;;;;;;10.55;86.66;98998.09;5046334;28;20029;-65
2022/05/01 08:01:44;;;;;;;16.98;10.63;;;;;;;10.70;85.16;98995.28;5057436;28;20021;-65
2022/05/01 08:04:28;;;;;;;16.02;9.07;;;;;;;10.83;83.18;98986.31;5064517;28;20040;-65
2022/05/01 08:06:54;;;;;;;20.92;8.95;;;;;;;10.90;80.99;98993.22;5045944;28;20028;-65
2022/05/01 08:09:19;;;;;;;19.25;9.65;;;;;;;10.98;81.14;98993.09;5055517;28;20025;-64
2022/05/01 08:11:45;;;;;;;13.93;8.50;;;;;;;11.27;80.68;98994.38;5060741;28;20074;-64
2022/05/01 08:14:12;;;;;;;18.13;9.18;;;;;;;11.23;79.21;98989.19;5051971;28;20040;-62
2022/05/01 08:16:41;;;;;;;15.25;8.90;;;;;;;11.57;79.71;98988.59;5053062;28;20035;-64
2022/05/01 08:21:51;;;;;;;20.35;8.88;;;;;;;12.17;78.39;98992.75;5046934;28;20067;-70
2022/05/01 08:24:16;;;;;;;13.95;7.78;;;;;;;12.27;75.89;98994.28;5054775;28;20029;-66
2022/05/01 08:26:47;;;;;;;13.90;8.60;;;;;;;12.21;76.58;98999.69;5045612;28;20135;-66
2022/05/01 08:29:13;;;;;;;14.85;9.18;;;;;;;12.69;75.41;99003.94;5045556;28;20062;-66
2022/05/01 08:31:39;;;;;;;14.52;8.15;;;;;;;12.90;75.32;99002.59;5045532;28;20044;-66
2022/05/01 08:34:04;;;;;;;13.80;7.90;;;;;;;13.13;73.30;99002.94;5060813;28;20025;-66
2022/05/01 08:36:31;;;;;;;14.93;8.13;;;;;;;13.16;72.62;99002.03;5047857;28;20029;-67
2022/05/01 08:38:56;;;;;;;17.25;7.90;;;;;;;13.14;74.60;98999.44;5045345;28;20092;-66
2022/05/01 08:41:24;;;;;;;13.45;7.28;;;;;;;13.48;73.09;98991.53;5047667;28;20309;-66
2022/05/01 08:43:51;;;;;;;17.05;8.77;;;;;;;13.59;76.59;98994.75;5048832;28;20029;-66
2022/05/01 08:46:38;;;;;;;14.35;7.78;;;;;;;13.73;72.40;98997.94;5049849;28;20151;-66
2022/05/01 08:49:05;;;;;;;14.32;8.60;;;;;;;13.48;72.42;98991.53;5045577;28;20037;-66
2022/05/01 08:51:33;;;;;;;14.55;7.97;;;;;;;13.72;70.30;98993.53;5059510;28;20283;-67
2022/05/01 08:54:00;;;;;;;17.60;10.02;;;;;;;13.39;72.35;98983.84;5046509;28;20090;-67
2022/05/01 08:56:26;;;;;;;14.48;8.43;;;;;;;13.72;73.02;98990.88;5045376;28;20017;-66
2022/05/01 08:58:52;;;;;;;14.05;7.95;;;;;;;13.78;72.41;98996.91;5059249;28;20071;-67
2022/05/01 09:01:18;;;;;;;13.73;7.82;;;;;;;13.82;71.89;98998.56;5059458;28;20321;-67
2022/05/01 09:03:44;;;;;;;16.50;8.57;;;;;;;13.58;70.39;98993.03;5047234;28;20083;-67
2022/05/01 09:06:11;;;;;;;16.50;8.35;;;;;;;13.57;70.75;98996.59;5052259;28;20090;-67
2022/05/01 09:08:40;;;;;;;13.05;8.85;;;;;;;13.48;72.93;98996.84;5055042;28;20038;-67
2022/05/01 09:13:50;;;;;;;17.98;9.60;;;;;;;13.62;70.58;99010.56;5064096;28;20031;-67
2022/05/01 09:16:16;;;;;;;14.27;8.20;;;;;;;13.60;69.06;99007.94;5062691;28;20320;-67
2022/05/01 09:18:43;;;;;;;17.98;9.02;;;;;;;13.19;71.91;99000.16;5062083;28;20339;-67
2022/05/01 09:21:09;;;;;;;14.05;8.05;;;;;;;13.35;72.25;99000.69;5059027;28;20036;-67
2022/05/01 09:23:39;;;;;;;15.10;8.13;;;;;;;13.24;74.07;99002.69;5044400;28;20056;-68
2022/05/01 09:26:10;;;;;;;13.27;8.48;;;;;;;13.48;72.36;99007.41;5044753;28;20355;-67
2022/05/01 09:28:37;;;;;;;14.32;8.88;;;;;;;13.55;71.38;99001.06;5050048;28;20035;-67
2022/05/01 09:31:03;;;;;;;20.02;9.23;;;;;;;13.49;72.12;98998.56;5048037;28;20017;-67
2022/05/01 09:33:29;;;;;;;13.48;8.20;;;;;;;13.47;71.59;99000.34;5044451;28;20025;-66
2022/05/01 09:35:55;;;;;;;12.23;8.32;;;;;;;13.42;71.37;98997.84;5054285;28;20093;-66
2022/05/01 09:38:23;;;;;;;12.45;8.10;;;;;;;13.60;72.61;98997.38;5044302;28;20032;-66
2022/05/01 09:40:50;;;;;;;19.42;8.05;;;;;;;13.64;72.09;99006.09;5052516;28;20017;-65
2022/05/01 09:43:35;;;;;;;13.65;8.38;;;;;;;13.85;70.70;99002.88;5052379;28;20328;-66
2022/05/01 09:46:20;;;;;;;18.10;8.73;;;;;;;13.88;70.92;99002.81;5044441;28;20127;-68
2022/05/01 09:49:06;;;;;;;14.48;8.32;;;;;;;14.01;69.97;99004.22;5049846;28;20021;-66
2022/05/01 09:51:33;;;;;;;11.65;7.55;;;;;;;13.95;72.66;98999.13;5051921;28;20032;-67
2022/05/01 09:54:02;;;;;;;11.80;6.80;;;;;;;13.97;69.80;99002.56;5049096;28;20029;-67
2022/05/01 09:56:28;;;;;;;15.65;8.45;;;;;;;13.72;71.09;99001.47;5050454;28;20017;-67
2022/05/01 09:59:00;;;;;;;15.70;8.15;;;;;;;13.79;69.44;99003.06;5055417;28;20021;-67
2022/05/01 10:01:27;;;;;;;13.80;8.13;;;;;;;13.69;70.14;98996.25;5047872;28;20025;-67
2022/05/01 10:03:53;;;;;;;16.83;8.82;;;;;;;13.76;70.99;98992.56;5058626;28;20412;-67
2022/05/01 10:06:20;;;;;;;15.52;8.27;;;;;;;13.92;70.07;98993.91;5059558;28;20049;-67
2022/05/01 10:08:47;;;;;;;14.68;8.77;;;;;;;14.09;68.36;98991.66;5050908;28;20029;-67
2022/05/01 10:11:16;;;;;;;11.70;7.38;;;;;;;14.28;67.70;98992.91;5051656;28;20021;-67
2022/05/01 10:13:46;;;;;;;19.67;8.88;;;;;;;14.40;66.99;98992.56;5053358;28;20013;-67
2022/05/01 10:16:15;;;;;;;14.63;8.13;;;;;;;14.47;66.36;98988.81;5055062;28;20111;-67
2022/05/01 10:18:41;;;;;;;14.80;8.43;;;;;;;14.53;68.58;98988.66;5051113;28;20040;-67
2022/05/01 10:21:06;;;;;;;15.05;8.15;;;;;;;14.92;65.98;98992.72;5049198;28;20018;-68
2022/05/01 10:23:33;;;;;;;18.88;9.10;;;;;;;14.95;66.02;98993.53;5052984;28;20052;-68
2022/05/01 10:26:11;;;;;;;14.48;8.18;;;;;;;14.63;67.30;98984.81;5063368;28;20028;-68
2022/05/01 10:28:48;;;;;;;15.43;8.30;;;;;;;14.88;66.26;98999.06;5043775;28;20029;-68
2022/05/01 10:34:44;;;;;;;10.35;7.32;;;;;;;14.76;65.61;98981.75;5043683;28;20351;-68
2022/05/01 10:37:15;;;;;;;15.73;7.22;;;;;;;15.13;65.22;98986.78;5043888;28;20331;-68
2022/05/01 10:39:42;;;;;;;12.50;8.73;;;;;;;15.21;67.05;98979.41;5043656;28;20021;-68
2022/05/01 10:42:08;;;;;;;16.30;8.20;;;;;;;15.36;65.56;98978.94;5043650;28;20296;-68
2022/05/01 10:44:36;;;;;;;15.88;8.23;;;;;;;15.30;63.75;98971.16;5043513;28;20029;-68
2022/05/01 10:47:12;;;;;;;14.15;7.53;;;;;;;15.23;64.23;98967.00;5043593;28;20025;-68
2022/05/01 10:49:41;;;;;;;14.80;8.70;;;;;;;14.99;65.46;98967.75;5043596;28;20017;-68
2022/05/01 10:52:23;;;;;;;11.52;7.57;;;;;;;14.90;65.14;98962.75;5043519;28;20071;-68
2022/05/01 10:55:01;;;;;;;18.77;7.75;;;;;;;15.07;64.33;98960.44;5043540;28;20013;-68
2022/05/01 10:57:27;;;;;;;12.98;7.43;;;;;;;14.80;65.04;98956.88;5043491;28;20025;-68
2022/05/01 11:00:06;;;;;;;15.63;8.02;;;;;;;15.26;65.43;98961.59;5043411;28;20032;-68
2022/05/01 11:02:38;;;;;;;13.93;7.60;;;;;;;15.54;64.69;98965.09;5043155;28;20347;-68
2022/05/01 11:05:04;;;;;;;;;;;;;;;15.47;64.24;98960.88;5043417;28;20052;-68
2022/05/01 11:07:30;;;;;;;12.25;7.35;;;;;;;15.60;63.18;98951.59;5045864;28;20196;-68
2022/05/01 11:10:00;;;;;;;13.35;7.10;;;;;;;15.72;63.58;98951.19;5047323;28;20017;-68
2022/05/01 11:12:26;;;;;;;12.82;7.40;;;;;;;15.71;62.17;98952.09;5046941;28;20085;-68
2022/05/01 11:15:00;;;;;;;14.10;6.95;;;;;;;15.56;61.29;98943.81;5047001;28;20099;-68
2022/05/01 11:17:31;;;;;;;9.63;6.65;;;;;;;15.87;62.35;98953.31;5046964;28;20028;-68
2022/05/01 11:20:25;;;;;;;11.70;7.17;;;;;;;16.09;62.59;98954.28;5046910;28;20347;-68
2022/05/01 11:22:51;;;;;;;14.23;7.40;;;;;;;15.86;62.00;98948.03;5046809;28;20025;-68
2022/05/01 11:25:43;;;;;;;12.95;7.40;;;;;;;16.14;62.22;98949.63;5046810;28;20096;-68
2022/05/01 11:28:08;;;;;;;13.37;8.07;;;;;;;16.03;62.99;98937.69;5046768;28;20032;-68
2022/05/01 11:30:36;;;;;;;12.15;7.35;;;;;;;16.23;61.43;98937.84;5046708;28;20065;-68
2022/05/01 11:33:10;;;;;;;15.27;8.05;;;;;;;16.14;63.80;98939.00;5046613;28;20021;-68
2022/05/01 11:35:57;;;;;;;11.48;6.78;;;;;;;16.33;62.00;98929.44;5046844;28;20025;-68
2022/05/01 11:38:31;;;;;;;12.15;6.15;;;;;;;16.31;62.97;98935.75;5046599;28;20077;-68
2022/05/01 11:40:59;;;;;;;12.88;6.47;;;;;;;16.18;62.27;98930.03;5046476;28;20053;-68
2022/05/01 11:43:28;;;;;;;11.70;6.82;;;;;;;16.23;61.85;98922.75;5046359;28;20031;-68
2022/05/01 11:45:57;;;;;;;10.27;6.72;;;;;;;16.19;62.40;98925.56;5046363;28;20017;-67
2022/05/01 11:48:23;;;;;;;11.00;6.70;;;;;;;15.75;62.88;98916.56;5046358;28;20025;-67
2022/05/01 11:50:51;;;;;;;11.63;6.68;;;;;;;15.77;62.04;98917.41;5046555;28;20025;-67
2022/05/01 11:53:23;;;;;;;10.30;6.95;;;;;;;15.76;64.24;98910.34;5046204;28;20026;-67
2022/05/01 12:04:25;;;;;;;18.23;7.80;;;;;;;16.99;65.25;98905.59;5045909;28;20044;-67
2022/05/01 12:07:04;;;;;;;11.80;7.43;;;;;;;16.84;62.30;98895.56;5045995;28;20044;-67
2022/05/01 12:09:31;;;;;;;10.55;5.95;;;;;;;16.75;60.02;98895.94;5046103;28;20022;-67